sensor_id;sensor_type;location;lat;lon;timestamp;pressure;altitude;pressure_sealevel;temperature;humidity
64675;BME280;51090;51.512;11.332;2023-06-19T00:01:20;99087.94;;;20.55;74.86
64675;BME280;51090;51.512;11.332;2023-06-19T00:03:46;99091.13;;;20.52;75.26
64675;BME280;51090;51.512;11.332;2023-06-19T00:06:12;99093.81;;;20.52;75.02
64675;BME280;51090;51.512;11.332;2023-06-19T00:08:39;99086.00;;;20.50;75.24
64675;BME280;51090;51.512;11.332;2023-06-19T00:11:07;99084.66;;;20.48;75.14
64675;BME280;51090;51.512;11.332;2023-06-19T00:13:33;99077.06;;;20.44;75.33
64675;BME280;51090;51.512;11.332;2023-06-19T00:16:00;99077.59;;;20.41;75.97
64675;BME280;51090;51.512;11.332;2023-06-19T00:18:27;99080.78;;;20.38;75.53
64675;BME280;51090;51.512;11.332;2023-06-19T00:20:53;99080.22;;;20.36;75.17
64675;BME280;51090;51.512;11.332;2023-06-19T00:23:24;99085.06;;;20.34;75.89
64675;BME280;51090;51.512;11.332;2023-06-19T00:25:50;99085.00;;;20.29;76.80
64675;BME280;51090;51.512;11.332;2023-06-19T00:28:16;99086.06;;;20.23;76.57
64675;BME280;51090;51.512;11.332;2023-06-19T00:30:45;99076.38;;;20.22;76.56
64675;BME280;51090;51.512;11.332;2023-06-19T00:33:11;99085.25;;;20.22;77.11
64675;BME280;51090;51.512;11.332;2023-06-19T00:35:37;99083.38;;;20.23;76.66
64675;BME280;51090;51.512;11.332;2023-06-19T00:38:05;99082.03;;;20.26;76.76
64675;BME280;51090;51.512;11.332;2023-06-19T00:40:32;99080.97;;;20.27;76.38
64675;BME280;51090;51.512;11.332;2023-06-19T00:42:59;99073.97;;;20.26;76.29
64675;BME280;51090;51.512;11.332;2023-06-19T00:45:26;99075.03;;;20.25;76.72
64675;BME280;51090;51.512;11.332;2023-06-19T00:47:54;99073.41;;;20.23;77.22
64675;BME280;51090;51.512;11.332;2023-06-19T00:50:21;99073.91;;;20.20;76.84
64675;BME280;51090;51.512;11.332;2023-06-19T00:52:47;99062.59;;;20.18;76.53
64675;BME280;51090;51.512;11.332;2023-06-19T00:55:15;99061.78;;;20.18;76.95
64675;BME280;51090;51.512;11.332;2023-06-19T00:57:41;99057.94;;;20.09;76.68
64675;BME280;51090;51.512;11.332;2023-06-19T01:00:09;99064.63;;;20.06;76.91
64675;BME280;51090;51.512;11.332;2023-06-19T01:02:36;99048.66;;;19.94;76.58
64675;BME280;51090;51.512;11.332;2023-06-19T01:05:02;99061.81;;;19.91;76.97
64675;BME280;51090;51.512;11.332;2023-06-19T01:07:44;99056.66;;;19.84;77.45
64675;BME280;51090;51.512;11.332;2023-06-19T01:10:21;99058.44;;;19.73;79.37
64675;BME280;51090;51.512;11.332;2023-06-19T01:12:56;99052.34;;;19.61;80.21
64675;BME280;51090;51.512;11.332;2023-06-19T01:15:24;99046.63;;;19.52;79.21
64675;BME280;51090;51.512;11.332;2023-06-19T01:17:51;99043.31;;;19.45;79.72
64675;BME280;51090;51.512;11.332;2023-06-19T01:20:17;99046.47;;;19.37;79.93
64675;BME280;51090;51.512;11.332;2023-06-19T01:22:43;99045.84;;;19.30;80.41
64675;BME280;51090;51.512;11.332;2023-06-19T01:25:10;99041.44;;;19.24;80.87
64675;BME280;51090;51.512;11.332;2023-06-19T01:27:39;99041.09;;;19.15;80.96
64675;BME280;51090;51.512;11.332;2023-06-19T01:30:06;99034.03;;;19.09;81.77
64675;BME280;51090;51.512;11.332;2023-06-19T01:32:58;99028.31;;;19.05;85.12
64675;BME280;51090;51.512;11.332;2023-06-19T01:35:34;99016.72;;;19.00;83.19
64675;BME280;51090;51.512;11.332;2023-06-19T01:38:02;99026.88;;;18.98;82.84
64675;BME280;51090;51.512;11.332;2023-06-19T01:40:28;99003.66;;;18.86;83.09
64675;BME280;51090;51.512;11.332;2023-06-19T01:43:00;99020.88;;;18.90;83.29
64675;BME280;51090;51.512;11.332;2023-06-19T01:45:28;99024.63;;;18.89;83.64
64675;BME280;51090;51.512;11.332;2023-06-19T01:47:55;99015.72;;;18.84;83.89
64675;BME280;51090;51.512;11.332;2023-06-19T01:50:24;99008.69;;;18.83;85.32
64675;BME280;51090;51.512;11.332;2023-06-19T01:52:50;99008.69;;;18.83;84.35
64675;BME280;51090;51.512;11.332;2023-06-19T01:55:17;99006.84;;;18.83;84.56
64675;BME280;51090;51.512;11.332;2023-06-19T01:57:43;99012.75;;;18.85;84.53
64675;BME280;51090;51.512;11.332;2023-06-19T02:00:11;99025.16;;;18.86;84.41
64675;BME280;51090;51.512;11.332;2023-06-19T02:02:38;99012.69;;;18.80;85.35
64675;BME280;51090;51.512;11.332;2023-06-19T02:05:04;99018.63;;;18.82;85.93
64675;BME280;51090;51.512;11.332;2023-06-19T02:07:30;99012.28;;;18.88;85.69
64675;BME280;51090;51.512;11.332;2023-06-19T02:09:57;99009.59;;;18.88;85.53
64675;BME280;51090;51.512;11.332;2023-06-19T02:12:23;99003.66;;;18.86;85.64
64675;BME280;51090;51.512;11.332;2023-06-19T02:14:49;98997.66;;;18.79;85.35
64675;BME280;51090;51.512;11.332;2023-06-19T02:17:15;99001.72;;;18.82;85.76
64675;BME280;51090;51.512;11.332;2023-06-19T02:19:40;99002.22;;;18.79;86.55
64675;BME280;51090;51.512;11.332;2023-06-19T02:22:06;98997.66;;;18.79;86.84
64675;BME280;51090;51.512;11.332;2023-06-19T02:24:32;98996.03;;;18.78;87.66
64675;BME280;51090;51.512;11.332;2023-06-19T02:26:58;98983.47;;;18.84;87.93
64675;BME280;51090;51.512;11.332;2023-06-19T02:29:25;98990.53;;;18.90;87.55
64675;BME280;51090;51.512;11.332;2023-06-19T02:31:50;98987.59;;;18.91;88.68
64675;BME280;51090;51.512;11.332;2023-06-19T02:34:16;98983.28;;;18.90;87.80
64675;BME280;51090;51.512;11.332;2023-06-19T02:36:42;98979.53;;;18.91;88.85
64675;BME280;51090;51.512;11.332;2023-06-19T02:39:08;98981.47;;;18.96;89.01
64675;BME280;51090;51.512;11.332;2023-06-19T02:41:34;98986.59;;;18.98;89.87
64675;BME280;51090;51.512;11.332;2023-06-19T02:44:00;98983.91;;;18.98;89.73
64675;BME280;51090;51.512;11.332;2023-06-19T02:46:26;98982.59;;;19.00;88.81
64675;BME280;51090;51.512;11.332;2023-06-19T02:48:51;98983.72;;;19.04;89.77
64675;BME280;51090;51.512;11.332;2023-06-19T02:51:17;98987.22;;;19.05;88.36
64675;BME280;51090;51.512;11.332;2023-06-19T02:53:43;98983.38;;;19.01;89.25
64675;BME280;51090;51.512;11.332;2023-06-19T02:56:11;98987.44;;;19.03;89.73
64675;BME280;51090;51.512;11.332;2023-06-19T02:58:37;99000.47;;;19.11;89.45
64675;BME280;51090;51.512;11.332;2023-06-19T03:01:03;99004.25;;;19.15;89.33
64675;BME280;51090;51.512;11.332;2023-06-19T03:03:32;99000.53;;;19.17;89.64
64675;BME280;51090;51.512;11.332;2023-06-19T03:06:05;98990.31;;;19.19;89.97
64675;BME280;51090;51.512;11.332;2023-06-19T03:08:36;98994.44;;;19.26;89.20
64675;BME280;51090;51.512;11.332;2023-06-19T03:11:03;99002.00;;;19.29;88.03
64675;BME280;51090;51.512;11.332;2023-06-19T03:13:50;99000.69;;;19.32;90.82
64675;BME280;51090;51.512;11.332;2023-06-19T03:16:17;98991.00;;;19.31;88.45
64675;BME280;51090;51.512;11.332;2023-06-19T03:18:44;98993.69;;;19.31;89.51
64675;BME280;51090;51.512;11.332;2023-06-19T03:21:11;98986.94;;;19.28;89.31
64675;BME280;51090;51.512;11.332;2023-06-19T03:23:37;98995.00;;;19.28;89.70
64675;BME280;51090;51.512;11.332;2023-06-19T03:26:03;98991.50;;;19.28;91.28
64675;BME280;51090;51.512;11.332;2023-06-19T03:28:29;98987.19;;;19.27;90.80
64675;BME280;51090;51.512;11.332;2023-06-19T03:30:54;98985.88;;;19.29;90.96
64675;BME280;51090;51.512;11.332;2023-06-19T03:33:20;98978.88;;;19.28;91.42
64675;BME280;51090;51.512;11.332;2023-06-19T03:35:46;98976.75;;;19.30;90.94
64675;BME280;51090;51.512;11.332;2023-06-19T03:38:12;98973.25;;;19.30;91.45
64675;BME280;51090;51.512;11.332;2023-06-19T03:40:38;98971.66;;;19.34;91.74
64675;BME280;51090;51.512;11.332;2023-06-19T03:43:03;98967.38;;;19.33;91.06
64675;BME280;51090;51.512;11.332;2023-06-19T03:45:29;98980.63;;;19.40;90.97
64675;BME280;51090;51.512;11.332;2023-06-19T03:47:55;98976.03;;;19.40;92.99
64675;BME280;51090;51.512;11.332;2023-06-19T03:50:20;98981.41;;;19.40;92.82
64675;BME280;51090;51.512;11.332;2023-06-19T03:52:46;98979.03;;;19.44;92.59
64675;BME280;51090;51.512;11.332;2023-06-19T03:55:11;98986.09;;;19.50;92.31
64675;BME280;51090;51.512;11.332;2023-06-19T03:57:37;98993.13;;;19.56;92.53
64675;BME280;51090;51.512;11.332;2023-06-19T04:00:03;98994.97;;;19.50;93.42
64675;BME280;51090;51.512;11.332;2023-06-19T04:02:33;98987.94;;;19.49;90.75
64675;BME280;51090;51.512;11.332;2023-06-19T04:05:00;98993.88;;;19.51;92.66
64675;BME280;51090;51.512;11.332;2023-06-19T04:07:25;98996.06;;;19.54;92.62
64675;BME280;51090;51.512;11.332;2023-06-19T04:09:51;98992.88;;;19.57;93.37
64675;BME280;51090;51.512;11.332;2023-06-19T04:12:16;98987.00;;;19.61;92.96
64675;BME280;51090;51.512;11.332;2023-06-19T04:14:42;98992.44;;;19.66;93.02
64675;BME280;51090;51.512;11.332;2023-06-19T04:17:08;98987.03;;;19.66;93.03
64675;BME280;51090;51.512;11.332;2023-06-19T04:19:33;98977.34;;;19.65;90.90
64675;BME280;51090;51.512;11.332;2023-06-19T04:21:59;98980.53;;;19.62;91.35
64675;BME280;51090;51.512;11.332;2023-06-19T04:24:25;98976.75;;;19.57;91.28
64675;BME280;51090;51.512;11.332;2023-06-19T04:26:50;98975.88;;;19.52;91.82
64675;BME280;51090;51.512;11.332;2023-06-19T04:29:16;98981.25;;;19.52;92.82
64675;BME280;51090;51.512;11.332;2023-06-19T04:31:46;98984.25;;;19.55;93.67
64675;BME280;51090;51.512;11.332;2023-06-19T04:34:16;98989.69;;;19.61;92.87
64675;BME280;51090;51.512;11.332;2023-06-19T04:36:42;98994.78;;;19.62;92.62
64675;BME280;51090;51.512;11.332;2023-06-19T04:39:09;98999.69;;;19.65;92.00
64675;BME280;51090;51.512;11.332;2023-06-19T04:41:35;98998.38;;;19.68;92.24
64675;BME280;51090;51.512;11.332;2023-06-19T04:44:07;98990.53;;;19.66;91.41
64675;BME280;51090;51.512;11.332;2023-06-19T04:46:33;98993.97;;;19.62;92.27
64675;BME280;51090;51.512;11.332;2023-06-19T04:48:59;99007.72;;;19.60;91.83
64675;BME280;51090;51.512;11.332;2023-06-19T04:51:25;99000.41;;;19.55;92.37
64675;BME280;51090;51.512;11.332;2023-06-19T04:53:52;98999.06;;;19.58;92.28
64675;BME280;51090;51.512;11.332;2023-06-19T04:56:18;99013.63;;;19.62;92.64
64675;BME280;51090;51.512;11.332;2023-06-19T04:58:43;99012.66;;;19.68;93.26
64675;BME280;51090;51.512;11.332;2023-06-19T05:01:13;99008.41;;;19.77;92.73
64675;BME280;51090;51.512;11.332;2023-06-19T05:03:45;98996.03;;;19.76;93.19
64675;BME280;51090;51.512;11.332;2023-06-19T05:06:11;99006.91;;;19.87;92.90
64675;BME280;51090;51.512;11.332;2023-06-19T05:08:37;99017.44;;;19.93;92.78
64675;BME280;51090;51.512;11.332;2023-06-19T05:11:03;99015.06;;;19.97;92.85
64675;BME280;51090;51.512;11.332;2023-06-19T05:13:29;99012.91;;;19.99;93.25
64675;BME280;51090;51.512;11.332;2023-06-19T05:15:55;99019.34;;;19.98;93.91
64675;BME280;51090;51.512;11.332;2023-06-19T05:18:22;99032.28;;;20.01;93.83
64675;BME280;51090;51.512;11.332;2023-06-19T05:20:47;99037.44;;;20.02;93.51
64675;BME280;51090;51.512;11.332;2023-06-19T05:23:13;99042.56;;;20.04;91.98
64675;BME280;51090;51.512;11.332;2023-06-19T05:25:39;99045.75;;;20.01;90.95
64675;BME280;51090;51.512;11.332;2023-06-19T05:28:05;99035.22;;;19.94;90.41
64675;BME280;51090;51.512;11.332;2023-06-19T05:30:31;99040.59;;;19.94;92.67
64675;BME280;51090;51.512;11.332;2023-06-19T05:32:56;99033.09;;;19.96;92.91
64675;BME280;51090;51.512;11.332;2023-06-19T05:35:22;99020.16;;;19.98;94.64
64675;BME280;51090;51.512;11.332;2023-06-19T05:37:48;98999.72;;;19.97;97.24
64675;BME280;51090;51.512;11.332;2023-06-19T05:40:14;98985.75;;;20.00;98.80
64675;BME280;51090;51.512;11.332;2023-06-19T05:42:40;98987.09;;;20.03;100.00
64675;BME280;51090;51.512;11.332;2023-06-19T05:45:07;98992.81;;;20.07;100.00
64675;BME280;51090;51.512;11.332;2023-06-19T05:47:33;98993.22;;;19.93;100.00
64675;BME280;51090;51.512;11.332;2023-06-19T05:49:59;99008.72;;;19.81;100.00
64675;BME280;51090;51.512;11.332;2023-06-19T05:52:25;99027.06;;;19.84;100.00
64675;BME280;51090;51.512;11.332;2023-06-19T05:54:51;99010.78;;;19.69;100.00
64675;BME280;51090;51.512;11.332;2023-06-19T05:57:18;99038.38;;;19.86;100.00
64675;BME280;51090;51.512;11.332;2023-06-19T05:59:47;99045.13;;;19.89;100.00
64675;BME280;51090;51.512;11.332;2023-06-19T06:02:13;99043.53;;;19.93;100.00
64675;BME280;51090;51.512;11.332;2023-06-19T06:04:39;99052.72;;;19.97;100.00
64675;BME280;51090;51.512;11.332;2023-06-19T06:07:05;99042.00;;;20.02;100.00
64675;BME280;51090;51.512;11.332;2023-06-19T06:09:31;99042.06;;;20.07;100.00
64675;BME280;51090;51.512;11.332;2023-06-19T06:11:58;99030.00;;;20.15;100.00
64675;BME280;51090;51.512;11.332;2023-06-19T06:14:25;99036.56;;;20.29;100.00
64675;BME280;51090;51.512;11.332;2023-06-19T06:16:51;99050.66;;;20.41;100.00
64675;BME280;51090;51.512;11.332;2023-06-19T06:19:16;99059.66;;;20.57;100.00
64675;BME280;51090;51.512;11.332;2023-06-19T06:21:42;99056.25;;;20.72;100.00
64675;BME280;51090;51.512;11.332;2023-06-19T06:24:08;99048.56;;;20.91;100.00
64675;BME280;51090;51.512;11.332;2023-06-19T06:26:34;99047.00;;;21.05;100.00
64675;BME280;51090;51.512;11.332;2023-06-19T06:29:00;99038.69;;;21.12;100.00
64675;BME280;51090;51.512;11.332;2023-06-19T06:31:26;99042.47;;;21.21;100.00
64675;BME280;51090;51.512;11.332;2023-06-19T06:33:52;99043.28;;;21.22;100.00
64675;BME280;51090;51.512;11.332;2023-06-19T06:36:18;99038.72;;;21.22;100.00
64675;BME280;51090;51.512;11.332;2023-06-19T06:38:44;99041.94;;;21.24;100.00
64675;BME280;51090;51.512;11.332;2023-06-19T06:41:10;99041.16;;;21.24;100.00
64675;BME280;51090;51.512;11.332;2023-06-19T06:43:36;99039.81;;;21.26;100.00
64675;BME280;51090;51.512;11.332;2023-06-19T06:46:01;99050.56;;;21.21;100.00
64675;BME280;51090;51.512;11.332;2023-06-19T06:48:28;99051.66;;;21.20;100.00
64675;BME280;51090;51.512;11.332;2023-06-19T06:50:53;99051.09;;;21.18;100.00
64675;BME280;51090;51.512;11.332;2023-06-19T06:53:25;99054.03;;;21.12;100.00
64675;BME280;51090;51.512;11.332;2023-06-19T06:55:51;99053.75;;;21.08;100.00
64675;BME280;51090;51.512;11.332;2023-06-19T06:58:17;99052.66;;;21.09;100.00
64675;BME280;51090;51.512;11.332;2023-06-19T07:00:44;99056.47;;;21.13;100.00
64675;BME280;51090;51.512;11.332;2023-06-19T07:03:10;99049.19;;;21.14;100.00
64675;BME280;51090;51.512;11.332;2023-06-19T07:05:36;99052.72;;;21.24;100.00
64675;BME280;51090;51.512;11.332;2023-06-19T07:08:02;99052.78;;;21.35;100.00
64675;BME280;51090;51.512;11.332;2023-06-19T07:10:30;99059.59;;;21.52;100.00
64675;BME280;51090;51.512;11.332;2023-06-19T07:12:56;99075.31;;;21.76;100.00
64675;BME280;51090;51.512;11.332;2023-06-19T07:15:21;99075.88;;;21.99;100.00
64675;BME280;51090;51.512;11.332;2023-06-19T07:17:47;99083.47;;;22.17;100.00
64675;BME280;51090;51.512;11.332;2023-06-19T07:20:14;99093.22;;;22.38;100.00
64675;BME280;51090;51.512;11.332;2023-06-19T07:22:41;99094.25;;;22.68;100.00
64675;BME280;51090;51.512;11.332;2023-06-19T07:25:09;99092.84;;;22.91;98.95
64675;BME280;51090;51.512;11.332;2023-06-19T07:27:36;99102.00;;;23.21;95.47
64675;BME280;51090;51.512;11.332;2023-06-19T07:30:02;99106.25;;;23.42;92.27
64675;BME280;51090;51.512;11.332;2023-06-19T07:32:28;99092.06;;;23.61;90.65
64675;BME280;51090;51.512;11.332;2023-06-19T07:34:54;99096.88;;;23.84;89.49
64675;BME280;51090;51.512;11.332;2023-06-19T07:37:20;99097.22;;;24.07;88.47
64675;BME280;51090;51.512;11.332;2023-06-19T07:39:47;99099.59;;;24.19;85.81
64675;BME280;51090;51.512;11.332;2023-06-19T07:42:18;99105.22;;;24.27;82.69
64675;BME280;51090;51.512;11.332;2023-06-19T07:44:44;99112.78;;;24.30;80.62
64675;BME280;51090;51.512;11.332;2023-06-19T07:47:10;99108.75;;;24.28;80.66
64675;BME280;51090;51.512;11.332;2023-06-19T07:49:36;99121.22;;;24.24;80.78
64675;BME280;51090;51.512;11.332;2023-06-19T07:52:03;99116.97;;;24.18;79.41
64675;BME280;51090;51.512;11.332;2023-06-19T07:54:29;99110.78;;;24.07;79.76
64675;BME280;51090;51.512;11.332;2023-06-19T07:56:55;99107.59;;;24.00;81.53
64675;BME280;51090;51.512;11.332;2023-06-19T07:59:21;99107.06;;;23.98;82.26
64675;BME280;51090;51.512;11.332;2023-06-19T08:01:48;99111.69;;;23.97;82.42
64675;BME280;51090;51.512;11.332;2023-06-19T08:04:14;99115.69;;;24.05;83.81
64675;BME280;51090;51.512;11.332;2023-06-19T08:06:39;99107.22;;;24.11;84.12
64675;BME280;51090;51.512;11.332;2023-06-19T08:09:05;99109.59;;;24.23;83.74
64675;BME280;51090;51.512;11.332;2023-06-19T08:11:30;99109.16;;;24.40;83.35
64675;BME280;51090;51.512;11.332;2023-06-19T08:13:56;99113.09;;;24.58;82.05
64675;BME280;51090;51.512;11.332;2023-06-19T08:16:24;99110.22;;;24.78;80.99
64675;BME280;51090;51.512;11.332;2023-06-19T08:18:49;99096.16;;;25.01;80.22
64675;BME280;51090;51.512;11.332;2023-06-19T08:21:15;99095.19;;;25.39;77.63
64675;BME280;51090;51.512;11.332;2023-06-19T08:23:41;99094.91;;;25.79;74.59
64675;BME280;51090;51.512;11.332;2023-06-19T08:26:09;99092.72;;;26.19;72.30
64675;BME280;51090;51.512;11.332;2023-06-19T08:28:35;99097.13;;;26.47;67.02
64675;BME280;51090;51.512;11.332;2023-06-19T08:31:01;99095.06;;;26.58;63.16
64675;BME280;51090;51.512;11.332;2023-06-19T08:33:27;99088.84;;;26.71;62.51
64675;BME280;51090;51.512;11.332;2023-06-19T08:35:52;99083.63;;;26.89;61.62
64675;BME280;51090;51.512;11.332;2023-06-19T08:38:18;99083.56;;;27.08;60.45
64675;BME280;51090;51.512;11.332;2023-06-19T08:40:44;99088.31;;;27.30;58.28
64675;BME280;51090;51.512;11.332;2023-06-19T08:43:10;99080.63;;;27.46;55.83
64675;BME280;51090;51.512;11.332;2023-06-19T08:45:36;99079.59;;;27.55;55.63
64675;BME280;51090;51.512;11.332;2023-06-19T08:48:03;99076.97;;;27.50;53.79
64675;BME280;51090;51.512;11.332;2023-06-19T08:50:32;99076.00;;;27.46;51.73
64675;BME280;51090;51.512;11.332;2023-06-19T08:52:58;99065.69;;;27.43;51.99
64675;BME280;51090;51.512;11.332;2023-06-19T08:55:24;99080.22;;;27.52;51.30
64675;BME280;51090;51.512;11.332;2023-06-19T08:57:51;99086.47;;;27.53;52.27
64675;BME280;51090;51.512;11.332;2023-06-19T09:00:29;99083.63;;;27.58;50.43
64675;BME280;51090;51.512;11.332;2023-06-19T09:03:03;99086.13;;;27.68;50.36
64675;BME280;51090;51.512;11.332;2023-06-19T09:05:29;99087.41;;;27.85;50.20
64675;BME280;51090;51.512;11.332;2023-06-19T09:07:58;99085.31;;;28.04;48.05
64675;BME280;51090;51.512;11.332;2023-06-19T09:10:26;99088.34;;;28.25;49.20
64675;BME280;51090;51.512;11.332;2023-06-19T09:13:03;99085.00;;;28.28;45.38
64675;BME280;51090;51.512;11.332;2023-06-19T09:15:37;99081.31;;;28.24;46.08
64675;BME280;51090;51.512;11.332;2023-06-19T09:18:08;99085.75;;;28.42;46.23
64675;BME280;51090;51.512;11.332;2023-06-19T09:20:42;99087.13;;;28.54;46.43
64675;BME280;51090;51.512;11.332;2023-06-19T09:23:13;99075.34;;;28.67;44.78
64675;BME280;51090;51.512;11.332;2023-06-19T09:25:50;99081.31;;;28.78;41.71
64675;BME280;51090;51.512;11.332;2023-06-19T09:28:21;99075.06;;;29.08;43.04
64675;BME280;51090;51.512;11.332;2023-06-19T09:30:59;99071.09;;;29.32;41.88
64675;BME280;51090;51.512;11.332;2023-06-19T09:33:28;99079.13;;;29.37;42.27
64675;BME280;51090;51.512;11.332;2023-06-19T09:35:55;99072.06;;;29.36;41.38
64675;BME280;51090;51.512;11.332;2023-06-19T09:38:30;99075.13;;;29.43;42.00
64675;BME280;51090;51.512;11.332;2023-06-19T09:41:01;99072.41;;;29.61;41.02
64675;BME280;51090;51.512;11.332;2023-06-19T09:43:38;99067.09;;;29.47;36.77
64675;BME280;51090;51.512;11.332;2023-06-19T09:46:06;99067.25;;;29.42;39.59
64675;BME280;51090;51.512;11.332;2023-06-19T09:48:34;99064.19;;;29.35;39.72
64675;BME280;51090;51.512;11.332;2023-06-19T09:51:20;99071.06;;;29.23;40.18
64675;BME280;51090;51.512;11.332;2023-06-19T09:53:48;99067.41;;;29.37;41.16
64675;BME280;51090;51.512;11.332;2023-06-19T09:56:16;99063.41;;;29.51;40.82
64675;BME280;51090;51.512;11.332;2023-06-19T09:58:43;99057.31;;;29.63;41.00
64675;BME280;51090;51.512;11.332;2023-06-19T10:01:09;99045.59;;;29.89;39.99
64675;BME280;51090;51.512;11.332;2023-06-19T10:03:36;99056.16;;;30.34;39.94
64675;BME280;51090;51.512;11.332;2023-06-19T10:06:03;99052.53;;;30.68;39.13
64675;BME280;51090;51.512;11.332;2023-06-19T10:08:48;99052.84;;;30.75;35.84
64675;BME280;51090;51.512;11.332;2023-06-19T10:11:16;99064.59;;;30.76;37.50
64675;BME280;51090;51.512;11.332;2023-06-19T10:13:42;99063.31;;;30.65;37.39
64675;BME280;51090;51.512;11.332;2023-06-19T10:16:23;99064.69;;;30.41;37.57
64675;BME280;51090;51.512;11.332;2023-06-19T10:18:50;99061.47;;;30.39;38.02
64675;BME280;51090;51.512;11.332;2023-06-19T10:21:17;99055.72;;;30.32;37.52
64675;BME280;51090;51.512;11.332;2023-06-19T10:23:57;99056.50;;;30.24;37.67
64675;BME280;51090;51.512;11.332;2023-06-19T10:26:34;99047.34;;;30.20;37.25
64675;BME280;51090;51.512;11.332;2023-06-19T10:29:00;99052.66;;;30.25;37.56
64675;BME280;51090;51.512;11.332;2023-06-19T10:31:26;99059.75;;;30.34;38.21
64675;BME280;51090;51.512;11.332;2023-06-19T10:33:54;99051.34;;;30.31;37.88
64675;BME280;51090;51.512;11.332;2023-06-19T10:36:22;99060.84;;;30.33;37.83
64675;BME280;51090;51.512;11.332;2023-06-19T10:38:51;99058.91;;;30.34;38.06
64675;BME280;51090;51.512;11.332;2023-06-19T10:41:19;99062.31;;;30.40;38.27
64675;BME280;51090;51.512;11.332;2023-06-19T10:44:04;99063.94;;;30.32;37.21
64675;BME280;51090;51.512;11.332;2023-06-19T10:46:35;99074.19;;;30.17;37.04
64675;BME280;51090;51.512;11.332;2023-06-19T10:49:03;99077.44;;;30.11;37.77
64675;BME280;51090;51.512;11.332;2023-06-19T10:51:33;99070.66;;;30.17;38.61
64675;BME280;51090;51.512;11.332;2023-06-19T10:53:59;99072.13;;;30.32;38.36
64675;BME280;51090;51.512;11.332;2023-06-19T10:56:25;99064.69;;;30.41;37.21
64675;BME280;51090;51.512;11.332;2023-06-19T10:59:05;99066.16;;;30.47;36.78
64675;BME280;51090;51.512;11.332;2023-06-19T11:01:39;99061.88;;;30.67;36.13
64675;BME280;51090;51.512;11.332;2023-06-19T11:04:10;99055.25;;;30.86;36.09
64675;BME280;51090;51.512;11.332;2023-06-19T11:06:38;99056.94;;;30.99;36.69
64675;BME280;51090;51.512;11.332;2023-06-19T11:09:06;99053.84;;;31.09;35.82
64675;BME280;51090;51.512;11.332;2023-06-19T11:11:46;99048.97;;;31.15;34.92
64675;BME280;51090;51.512;11.332;2023-06-19T11:14:13;99041.00;;;31.01;34.82
64675;BME280;51090;51.512;11.332;2023-06-19T11:16:42;99051.97;;;30.92;34.88
64675;BME280;51090;51.512;11.332;2023-06-19T11:19:13;99047.31;;;30.93;35.75
64675;BME280;51090;51.512;11.332;2023-06-19T11:21:39;99042.19;;;30.91;35.57
64675;BME280;51090;51.512;11.332;2023-06-19T11:24:13;99033.00;;;30.87;34.99
64675;BME280;51090;51.512;11.332;2023-06-19T11:26:44;99036.53;;;30.88;35.38
64675;BME280;51090;51.512;11.332;2023-06-19T11:29:20;99042.13;;;31.00;35.53
64675;BME280;51090;51.512;11.332;2023-06-19T11:31:47;99038.59;;;30.99;34.99
64675;BME280;51090;51.512;11.332;2023-06-19T11:34:14;99043.19;;;31.16;35.20
64675;BME280;51090;51.512;11.332;2023-06-19T11:36:41;99036.69;;;31.21;34.42
64675;BME280;51090;51.512;11.332;2023-06-19T11:39:12;99036.88;;;31.16;33.33
64675;BME280;51090;51.512;11.332;2023-06-19T11:41:39;99039.66;;;31.07;34.64
64675;BME280;51090;51.512;11.332;2023-06-19T11:44:07;99044.53;;;31.01;34.28
64675;BME280;51090;51.512;11.332;2023-06-19T11:46:34;99035.84;;;30.99;34.94
64675;BME280;51090;51.512;11.332;2023-06-19T11:49:17;99044.47;;;31.10;35.20
64675;BME280;51090;51.512;11.332;2023-06-19T11:51:46;99029.88;;;31.27;34.70
64675;BME280;51090;51.512;11.332;2023-06-19T11:54:14;99038.03;;;31.44;35.27
64675;BME280;51090;51.512;11.332;2023-06-19T11:56:41;99034.59;;;31.68;34.95
64675;BME280;51090;51.512;11.332;2023-06-19T11:59:07;99029.50;;;31.79;34.80
64675;BME280;51090;51.512;11.332;2023-06-19T12:01:35;99040.94;;;31.81;34.99
64675;BME280;51090;51.512;11.332;2023-06-19T12:04:02;99024.03;;;31.79;34.80
64675;BME280;51090;51.512;11.332;2023-06-19T12:06:29;99035.47;;;31.81;34.97
64675;BME280;51090;51.512;11.332;2023-06-19T12:08:55;99022.22;;;31.83;35.18
64675;BME280;51090;51.512;11.332;2023-06-19T12:11:20;99026.66;;;31.97;35.51
64675;BME280;51090;51.512;11.332;2023-06-19T12:13:46;99017.63;;;31.96;34.79
64675;BME280;51090;51.512;11.332;2023-06-19T12:16:13;99025.75;;;31.84;35.34
64675;BME280;51090;51.512;11.332;2023-06-19T12:18:40;99027.09;;;31.78;35.52
64675;BME280;51090;51.512;11.332;2023-06-19T12:21:06;99037.63;;;31.76;35.93
64675;BME280;51090;51.512;11.332;2023-06-19T12:23:32;99033.47;;;31.70;35.89
64675;BME280;51090;51.512;11.332;2023-06-19T12:25:58;99019.47;;;31.62;37.06
64675;BME280;51090;51.512;11.332;2023-06-19T12:28:23;99023.16;;;31.66;37.50
64675;BME280;51090;51.512;11.332;2023-06-19T12:30:50;99016.38;;;31.85;37.40
64675;BME280;51090;51.512;11.332;2023-06-19T12:33:20;99009.31;;;32.05;35.83
64675;BME280;51090;51.512;11.332;2023-06-19T12:35:47;99016.78;;;32.29;36.14
64675;BME280;51090;51.512;11.332;2023-06-19T12:38:13;99022.50;;;32.36;36.70
64675;BME280;51090;51.512;11.332;2023-06-19T12:40:39;99014.28;;;32.36;36.67
64675;BME280;51090;51.512;11.332;2023-06-19T12:43:05;99017.75;;;32.45;36.57
64675;BME280;51090;51.512;11.332;2023-06-19T12:45:31;99022.38;;;32.66;36.46
64675;BME280;51090;51.512;11.332;2023-06-19T12:47:57;99021.22;;;32.79;36.02
64675;BME280;51090;51.512;11.332;2023-06-19T12:50:23;99031.94;;;32.60;35.72